General Lucio Blanco International Airport
MMRX : now visible

Airfield :











YOU CAN JOIN US ON...

 
LOGIN :

Register | Disclaimer

   EN    FR    IT 

 









Legend :    VFR   Marginal VFR   IFR   Intensive IFR   Very Intensive IFR
Visi :
Ceiling :
>= 8 km
>= 3000ft
5 to 8 km
1000 to 3000 ft
1500m to 5 km
500 to 1000 ft
800 to 1500m
200 to 500 ft
< 800m
< 200 ft
Symbols :   Thunderstorms  Fog  Heavy snow  Heavy precipitations  Wind > 20 kt






- Airport Elevation : 139 ft
- IATA code : REX


MMRX - General Lucio Blanco International

CURRENT METAR :
  • 171443Z 11006KT 6SM OVC080 22/19 A3016 RMK SLP208 52007 957 8/03/ BR HZ BINOVC

EXPIRED METARs :
  • 171342Z 12005KT 6SM OVC030 21/19 A3015 RMK 8/4// BR HZ OCNL DROPS
  • 171245Z 12006KT 10SM SCT010 OVC030 21/19 A3014 RMK 8/4// STFRA OCNL DROPS

TAF AMD TAF MMRX
Valid from the 17 at 14:00 until the 18 at 06:00 UTC


171412Z 1714/1806 12005KT 6SM VC RA OVC030
TEMPO 1714/1717 4SM RA BKN010
FM171800 12010KT P6SM BKN040 BKN080 OVC200
FM180300 00000KT 5SM HZ BKN015 BKN100



MET'MAP, your aeronautical weather chart ! - Copyright ORBIFLY December 2007 - Disclaimer

ORBIFLY MET'MAP TEAM :

Programming & Development : Alexandra Zaïnal
Concept & original design : Baudouin d'Aumeries
Assistance for programming : Marc-Olivier Méhu
Technical & hardware support : Manuel Goepfert

Contact : metmap@orbifly.com




SOURCES & CREDITS :

   NOAA       Earth
Advisory